Time;durP1;ratioP1;P1;durP2;ratioP2;P2;SDS_P1;SDS_P2;PMS_P1;PMS_P2;Temp;Humidity;BMP_temperature;BMP_pressure;BME280_temperature;BME280_humidity;BME280_pressure;Samples;Min_cycle;Max_cycle;Signal;HPM_P1;HPM_P2
2022/12/28 00:00:51;;;;;;;8.18;3.60;;;;;;;;;;5090228;28;20067;-63
2022/12/28 00:03:17;;;;;;;10.07;3.90;;;;;;;;;;5075809;28;20048;-63
2022/12/28 00:05:43;;;;;;;7.93;3.33;;;;;;;;;;5067194;28;20040;-63
2022/12/28 00:08:09;;;;;;;8.70;3.33;;;;;;;;;;5087001;28;20489;-63
2022/12/28 00:10:35;;;;;;;6.47;3.05;;;;;;;;;;5086402;28;19923;-63
2022/12/28 00:13:01;;;;;;;4.80;2.85;;;;;;;;;;5088574;28;20032;-63
2022/12/28 00:15:27;;;;;;;5.47;2.97;;;;;;;;;;5067883;28;20055;-63
2022/12/28 00:17:53;;;;;;;5.95;3.40;;;;;;;;;;5083523;28;20127;-63
2022/12/28 00:20:19;;;;;;;7.90;3.30;;;;;;;;;;5085013;28;20097;-63
2022/12/28 00:22:45;;;;;;;6.28;3.47;;;;;;;;;;5077039;28;20047;-63
2022/12/28 00:25:11;;;;;;;8.98;3.83;;;;;;;;;;5093687;28;20169;-63
2022/12/28 00:27:37;;;;;;;6.50;3.63;;;;;;;;;;5082638;28;20052;-63
2022/12/28 00:30:03;;;;;;;8.63;3.60;;;;;;;;;;5093757;28;20051;-63
2022/12/28 00:32:29;;;;;;;8.80;3.63;;;;;;;;;;5081585;28;20359;-63
2022/12/28 00:34:55;;;;;;;6.47;3.60;;;;;;;;;;5093406;28;20435;-63
2022/12/28 00:37:21;;;;;;;9.55;4.45;;;;;;;;;;5083589;28;20055;-64
2022/12/28 00:39:47;;;;;;;4.75;4.18;;;;;;;;;;5081750;28;20102;-63
2022/12/28 00:42:13;;;;;;;9.20;4.95;;;;;;;;;;5093927;28;20074;-63
2022/12/28 00:44:39;;;;;;;8.73;4.20;;;;;;;;;;5092439;28;20040;-63
2022/12/28 00:47:06;;;;;;;5.43;3.85;;;;;;;;;;5082763;28;20047;-63
2022/12/28 00:49:32;;;;;;;5.15;3.78;;;;;;;;;;5092919;28;20051;-63
2022/12/28 00:51:58;;;;;;;6.57;4.22;;;;;;;;;;5092770;28;20127;-63
2022/12/28 00:54:24;;;;;;;6.20;4.40;;;;;;;;;;5092782;28;20040;-63
2022/12/28 00:56:50;;;;;;;6.15;4.10;;;;;;;;;;5082637;28;20438;-63
2022/12/28 00:59:16;;;;;;;7.22;4.55;;;;;;;;;;5082100;28;20040;-63
2022/12/28 01:01:42;;;;;;;6.03;4.00;;;;;;;;;;5080789;28;20043;-63
2022/12/28 01:04:08;;;;;;;9.95;5.13;;;;;;;;;;5082610;28;20068;-63
2022/12/28 01:06:34;;;;;;;8.15;5.15;;;;;;;;;;5081912;28;20052;-63
2022/12/28 01:09:00;;;;;;;10.38;4.18;;;;;;;;;;5092217;28;20055;-63
2022/12/28 01:11:30;;;;;;;5.68;4.03;;;;;;;;;;5092974;28;20135;-63
2022/12/28 01:13:57;;;;;;;5.97;4.05;;;;;;;;;;5092935;28;19958;-62
2022/12/28 01:16:28;;;;;;;9.32;4.40;;;;;;;;;;5092836;28;20040;-63
2022/12/28 01:18:55;;;;;;;8.73;4.43;;;;;;;;;;5082512;28;20051;-63
2022/12/28 01:21:23;;;;;;;6.22;4.38;;;;;;;;;;5092904;28;20054;-63
2022/12/28 01:23:49;;;;;;;7.18;3.83;;;;;;;;;;5092567;28;20054;-63
2022/12/28 01:26:16;;;;;;;6.10;4.10;;;;;;;;;;5092767;28;20406;-63
2022/12/28 01:28:42;;;;;;;6.28;4.10;;;;;;;;;;5090792;28;20098;-63
2022/12/28 01:31:09;;;;;;;5.68;3.90;;;;;;;;;;5092989;28;20040;-63
2022/12/28 01:33:36;;;;;;;5.88;4.35;;;;;;;;;;5081766;28;20138;-63
2022/12/28 01:36:06;;;;;;;7.28;4.45;;;;;;;;;;5091995;28;20048;-63
2022/12/28 01:38:32;;;;;;;8.68;5.03;;;;;;;;;;5080000;28;20501;-63
2022/12/28 01:40:58;;;;;;;8.98;4.25;;;;;;;;;;5092611;28;20040;-63
2022/12/28 01:43:36;;;;;;;6.85;4.28;;;;;;;;;;5092143;28;20131;-63
2022/12/28 01:46:02;;;;;;;4.95;3.60;;;;;;;;;;5091315;28;20135;-63
2022/12/28 01:48:28;;;;;;;8.90;4.55;;;;;;;;;;5081669;28;20044;-63
2022/12/28 01:50:54;;;;;;;5.10;4.07;;;;;;;;;;5091990;28;20067;-63
2022/12/28 01:53:21;;;;;;;7.25;4.10;;;;;;;;;;5082535;28;20473;-63
2022/12/28 01:55:47;;;;;;;6.00;3.97;;;;;;;;;;5081084;28;20039;-63
2022/12/28 01:58:20;;;;;;;6.55;4.30;;;;;;;;;;5084124;28;20532;-63
2022/12/28 02:00:46;;;;;;;7.60;4.78;;;;;;;;;;5099250;28;20489;-63
2022/12/28 02:03:15;;;;;;;5.68;4.03;;;;;;;;;;5086385;28;20054;-63
2022/12/28 02:05:43;;;;;;;6.78;4.25;;;;;;;;;;5085840;28;20121;-63
2022/12/28 02:08:12;;;;;;;5.68;4.50;;;;;;;;;;5097113;28;20029;-64
2022/12/28 02:10:39;;;;;;;6.88;4.72;;;;;;;;;;5084334;28;20481;-63
2022/12/28 02:13:05;;;;;;;6.38;4.25;;;;;;;;;;5100741;28;20088;-63
2022/12/28 02:15:31;;;;;;;10.50;4.80;;;;;;;;;;5095973;28;20122;-63
2022/12/28 02:17:57;;;;;;;8.35;4.70;;;;;;;;;;5099606;28;20167;-63
2022/12/28 02:20:24;;;;;;;6.68;4.43;;;;;;;;;;5085938;28;20359;-63
2022/12/28 02:22:50;;;;;;;7.53;4.15;;;;;;;;;;5093644;28;20663;-63
2022/12/28 02:25:32;;;;;;;10.98;4.28;;;;;;;;;;5093242;28;20458;-63
2022/12/28 02:28:01;;;;;;;5.53;4.55;;;;;;;;;;5097052;28;20054;-63
2022/12/28 02:30:29;;;;;;;5.82;4.63;;;;;;;;;;5093646;28;20400;-63
2022/12/28 02:33:01;;;;;;;7.32;5.30;;;;;;;;;;5084569;28;20051;-63
2022/12/28 02:35:48;;;;;;;9.60;5.05;;;;;;;;;;5093952;28;20522;-63
2022/12/28 02:38:28;;;;;;;6.68;4.93;;;;;;;;;;5095668;28;20040;-63
2022/12/28 02:41:06;;;;;;;6.63;4.15;;;;;;;;;;5095087;28;20096;-63
2022/12/28 02:43:32;;;;;;;5.13;3.70;;;;;;;;;;5093324;28;20052;-63
2022/12/28 02:51:56;;;;;;;6.07;4.63;;;;;;;;;;5095090;28;20122;-63
2022/12/28 02:57:29;;;;;;;8.60;4.23;;;;;;;;;;5083280;28;20044;-63
2022/12/28 02:59:58;;;;;;;7.50;4.40;;;;;;;;;;5084474;28;20101;-63
2022/12/28 03:02:44;;;;;;;7.30;5.55;;;;;;;;;;5095183;28;20038;-63
2022/12/28 03:08:13;;;;;;;6.18;4.25;;;;;;;;;;5094780;28;20083;-63
2022/12/28 03:08:21;;;;;;;7.25;5.40;;;;;;;;;;5092178;28;20082;-63
2022/12/28 03:10:56;;;;;;;5.22;4.55;;;;;;;;;;5084562;28;20046;-64
2022/12/28 03:13:44;;;;;;;6.68;5.55;;;;;;;;;;5094540;28;20044;-63
2022/12/28 03:16:17;;;;;;;5.10;4.70;;;;;;;;;;5084514;28;20092;-64
2022/12/28 03:32:34;;;;;;;5.20;4.72;;;;;;;;;;5083545;28;20159;-63
2022/12/28 03:35:01;;;;;;;6.35;5.45;;;;;;;;;;5093237;28;20048;-64
2022/12/28 03:37:31;;;;;;;5.65;4.63;;;;;;;;;;5091140;28;20678;-64
2022/12/28 03:40:06;;;;;;;5.90;5.30;;;;;;;;;;5093690;28;20044;-63
2022/12/28 03:45:29;;;;;;;6.38;5.70;;;;;;;;;;5082141;28;20478;-64
2022/12/28 03:47:56;;;;;;;6.03;5.18;;;;;;;;;;5093937;28;20065;-64
2022/12/28 03:50:22;;;;;;;5.13;4.72;;;;;;;;;;5093352;28;20043;-64
2022/12/28 03:52:48;;;;;;;6.03;5.30;;;;;;;;;;5093861;28;20100;-64
2022/12/28 03:55:15;;;;;;;6.10;5.45;;;;;;;;;;5093710;28;20040;-64
2022/12/28 03:57:42;;;;;;;6.80;4.72;;;;;;;;;;5082361;28;20104;-64
2022/12/28 04:00:09;;;;;;;5.32;4.50;;;;;;;;;;5093362;28;20461;-64
2022/12/28 04:02:35;;;;;;;5.80;5.20;;;;;;;;;;5093077;28;20043;-64
2022/12/28 04:05:01;;;;;;;5.32;4.80;;;;;;;;;;5082658;28;20067;-64
2022/12/28 04:07:27;;;;;;;6.28;5.22;;;;;;;;;;5093754;28;20056;-64
2022/12/28 04:09:53;;;;;;;5.40;4.90;;;;;;;;;;5093960;28;20110;-64
2022/12/28 04:12:19;;;;;;;5.60;5.10;;;;;;;;;;5093295;28;20112;-64
2022/12/28 04:14:45;;;;;;;5.70;5.13;;;;;;;;;;5083148;28;20073;-64
2022/12/28 04:17:11;;;;;;;6.07;5.32;;;;;;;;;;5082537;28;20048;-64
2022/12/28 04:19:37;;;;;;;5.63;5.15;;;;;;;;;;5082110;28;20396;-64
2022/12/28 04:22:03;;;;;;;5.00;4.60;;;;;;;;;;5081715;28;20085;-64
2022/12/28 04:24:30;;;;;;;5.38;4.97;;;;;;;;;;5082212;28;20043;-64
2022/12/28 04:26:56;;;;;;;5.30;4.80;;;;;;;;;;5093432;28;20040;-64
2022/12/28 04:29:21;;;;;;;5.07;4.57;;;;;;;;;;5094108;28;20386;-64
2022/12/28 04:31:48;;;;;;;5.65;5.18;;;;;;;;;;5082403;28;20052;-64
2022/12/28 04:34:14;;;;;;;5.22;4.57;;;;;;;;;;5083336;28;20099;-64
2022/12/28 04:36:41;;;;;;;5.15;4.75;;;;;;;;;;5093075;28;20066;-64
2022/12/28 04:39:07;;;;;;;7.60;5.18;;;;;;;;;;5082532;28;19924;-64
2022/12/28 04:41:33;;;;;;;4.95;4.55;;;;;;;;;;5093224;28;20043;-64
2022/12/28 04:43:59;;;;;;;5.18;4.78;;;;;;;;;;5082297;28;20036;-64
2022/12/28 04:46:25;;;;;;;5.28;4.85;;;;;;;;;;5082466;28;20401;-64
2022/12/28 04:48:51;;;;;;;5.33;4.93;;;;;;;;;;5093681;28;20044;-64
2022/12/28 04:51:22;;;;;;;5.32;4.93;;;;;;;;;;5093405;28;20202;-64
2022/12/28 04:53:49;;;;;;;5.00;4.60;;;;;;;;;;5082750;28;20043;-64
2022/12/28 04:56:15;;;;;;;5.93;5.32;;;;;;;;;;5083927;28;20040;-64
2022/12/28 04:58:41;;;;;;;6.13;5.63;;;;;;;;;;5081590;28;20507;-64
2022/12/28 05:01:09;;;;;;;5.00;4.60;;;;;;;;;;5082385;28;20043;-64
2022/12/28 05:03:35;;;;;;;5.72;5.32;;;;;;;;;;5084080;28;20042;-64
2022/12/28 05:06:06;;;;;;;6.30;5.80;;;;;;;;;;5093367;28;20039;-64
2022/12/28 05:08:32;;;;;;;5.78;5.28;;;;;;;;;;5078971;28;20135;-64
2022/12/28 05:11:02;;;;;;;7.13;6.47;;;;;;;;;;5093041;28;20036;-64
2022/12/28 05:13:28;;;;;;;6.40;5.90;;;;;;;;;;5090912;28;20514;-64
2022/12/28 05:15:54;;;;;;;7.38;6.72;;;;;;;;;;5092587;28;20044;-64
2022/12/28 05:18:20;;;;;;;6.60;6.10;;;;;;;;;;5092722;28;20036;-64
2022/12/28 05:20:46;;;;;;;6.03;5.63;;;;;;;;;;5083035;28;20048;-64
2022/12/28 05:23:12;;;;;;;6.47;5.97;;;;;;;;;;5083516;28;20504;-64
2022/12/28 05:25:38;;;;;;;7.25;6.65;;;;;;;;;;5089124;28;20044;-64
2022/12/28 05:28:04;;;;;;;8.40;7.60;;;;;;;;;;5083253;28;20067;-64
2022/12/28 05:30:30;;;;;;;7.88;7.07;;;;;;;;;;5089873;28;20040;-64
2022/12/28 05:32:57;;;;;;;7.40;6.80;;;;;;;;;;5089354;28;20050;-64
2022/12/28 05:35:23;;;;;;;7.35;6.75;;;;;;;;;;5088477;28;20078;-64
2022/12/28 05:37:49;;;;;;;8.35;7.55;;;;;;;;;;5089256;28;20797;-64
2022/12/28 05:40:15;;;;;;;8.70;7.88;;;;;;;;;;5096585;28;20310;-64
2022/12/28 05:42:41;;;;;;;8.40;7.65;;;;;;;;;;5095668;28;20093;-64
2022/12/28 05:45:07;;;;;;;9.85;7.80;;;;;;;;;;5089240;28;20052;-64
2022/12/28 05:47:33;;;;;;;9.10;8.40;;;;;;;;;;5088223;28;20098;-64
2022/12/28 05:49:59;;;;;;;8.35;7.55;;;;;;;;;;5100832;28;20493;-64
2022/12/28 05:52:25;;;;;;;9.77;8.90;;;;;;;;;;5091550;28;20126;-64
2022/12/28 05:54:51;;;;;;;8.85;8.05;;;;;;;;;;5111141;28;20127;-64
2022/12/28 05:57:17;;;;;;;9.10;8.13;;;;;;;;;;5092090;28;20125;-64
2022/12/28 05:59:43;;;;;;;10.52;9.20;;;;;;;;;;5090689;28;20052;-64
2022/12/28 06:02:09;;;;;;;9.82;8.93;;;;;;;;;;5091607;28;20097;-64
2022/12/28 06:04:35;;;;;;;9.73;8.93;;;;;;;;;;5088488;28;20051;-65
2022/12/28 06:07:01;;;;;;;9.48;8.57;;;;;;;;;;5090752;28;20062;-64
2022/12/28 06:09:27;;;;;;;9.85;8.85;;;;;;;;;;5105469;28;20051;-64
2022/12/28 06:11:53;;;;;;;11.02;9.20;;;;;;;;;;5105193;28;20393;-64
2022/12/28 06:14:19;;;;;;;9.32;8.23;;;;;;;;;;5110726;28;20500;-64
2022/12/28 06:16:45;;;;;;;10.18;9.15;;;;;;;;;;5107050;28;20044;-64
2022/12/28 06:19:13;;;;;;;9.73;8.90;;;;;;;;;;5110130;28;20060;-64
2022/12/28 06:21:41;;;;;;;8.57;7.78;;;;;;;;;;5109609;28;20142;-64
2022/12/28 06:24:07;;;;;;;8.88;8.02;;;;;;;;;;5108825;28;20159;-65
2022/12/28 06:26:34;;;;;;;8.57;7.88;;;;;;;;;;5088242;28;20052;-64
2022/12/28 06:29:00;;;;;;;8.73;7.80;;;;;;;;;;5099562;28;20044;-64
2022/12/28 06:31:31;;;;;;;7.95;7.25;;;;;;;;;;5097695;28;20044;-64
2022/12/28 06:33:58;;;;;;;7.40;6.80;;;;;;;;;;5088401;28;20086;-64
2022/12/28 06:36:25;;;;;;;7.60;6.93;;;;;;;;;;5097446;28;20134;-64
2022/12/28 06:38:52;;;;;;;6.90;6.32;;;;;;;;;;5089348;28;20055;-64
2022/12/28 06:41:19;;;;;;;7.38;6.85;;;;;;;;;;5088792;28;20387;-64
2022/12/28 06:43:46;;;;;;;7.57;6.70;;;;;;;;;;5084818;28;20161;-64
2022/12/28 06:46:15;;;;;;;8.00;7.05;;;;;;;;;;5097107;28;20085;-64
2022/12/28 06:48:41;;;;;;;8.07;6.63;;;;;;;;;;5084771;28;20157;-64
2022/12/28 06:51:09;;;;;;;9.40;8.40;;;;;;;;;;5101358;28;20031;-64
2022/12/28 06:53:36;;;;;;;8.52;7.55;;;;;;;;;;5092897;28;20173;-64
2022/12/28 06:56:04;;;;;;;8.23;7.32;;;;;;;;;;5086323;28;20108;-64
2022/12/28 06:58:31;;;;;;;8.25;7.07;;;;;;;;;;5096930;28;20102;-64
2022/12/28 07:00:57;;;;;;;8.15;7.35;;;;;;;;;;5092730;28;20039;-64
2022/12/28 07:03:24;;;;;;;8.48;7.78;;;;;;;;;;5086182;28;20553;-64
2022/12/28 07:05:50;;;;;;;7.82;6.57;;;;;;;;;;5095565;28;20031;-64
2022/12/28 07:08:17;;;;;;;7.40;6.90;;;;;;;;;;5092914;28;20048;-64
2022/12/28 07:10:43;;;;;;;6.47;5.97;;;;;;;;;;5086070;28;20434;-64
2022/12/28 07:13:09;;;;;;;7.10;6.15;;;;;;;;;;5084602;28;20105;-64
2022/12/28 07:15:36;;;;;;;6.93;6.25;;;;;;;;;;5085293;28;20122;-64
2022/12/28 07:18:02;;;;;;;9.77;6.93;;;;;;;;;;5089787;28;20043;-64
2022/12/28 07:20:28;;;;;;;7.28;6.72;;;;;;;;;;5083785;28;20232;-64
2022/12/28 07:22:54;;;;;;;7.72;6.90;;;;;;;;;;5093687;28;20597;-64
2022/12/28 07:25:20;;;;;;;7.72;7.00;;;;;;;;;;5088041;28;20052;-64
2022/12/28 07:27:46;;;;;;;7.85;7.15;;;;;;;;;;5104314;28;20551;-64
2022/12/28 07:30:12;;;;;;;8.10;7.40;;;;;;;;;;5087648;28;20122;-64
2022/12/28 07:32:39;;;;;;;8.45;7.75;;;;;;;;;;5087171;28;20086;-64
2022/12/28 07:35:05;;;;;;;8.57;7.43;;;;;;;;;;5106028;28;20105;-64
2022/12/28 07:37:31;;;;;;;8.38;7.45;;;;;;;;;;5104531;28;20075;-63
2022/12/28 07:39:57;;;;;;;9.73;7.35;;;;;;;;;;5087626;28;20534;-63
2022/12/28 07:42:23;;;;;;;9.30;8.07;;;;;;;;;;5086523;28;20051;-63
2022/12/28 07:44:49;;;;;;;8.82;7.45;;;;;;;;;;5105175;28;20075;-63
2022/12/28 07:47:15;;;;;;;8.57;7.78;;;;;;;;;;5064045;28;20097;-63
2022/12/28 07:49:41;;;;;;;8.40;7.60;;;;;;;;;;5100544;28;20397;-62
2022/12/28 07:52:07;;;;;;;8.82;7.80;;;;;;;;;;5099608;28;20049;-64
2022/12/28 07:54:33;;;;;;;8.60;7.75;;;;;;;;;;5105999;28;20101;-64
2022/12/28 07:56:59;;;;;;;8.93;7.75;;;;;;;;;;5097886;28;20481;-65
2022/12/28 07:59:25;;;;;;;7.80;7.10;;;;;;;;;;5088791;28;20378;-64
2022/12/28 08:01:51;;;;;;;9.45;7.30;;;;;;;;;;5099665;28;20063;-64
2022/12/28 08:04:17;;;;;;;11.05;7.50;;;;;;;;;;5102265;28;20122;-64
2022/12/28 08:06:44;;;;;;;9.57;7.80;;;;;;;;;;5091431;28;20048;-64
2022/12/28 08:09:11;;;;;;;7.80;6.70;;;;;;;;;;5087211;28;20036;-65
2022/12/28 08:11:38;;;;;;;9.65;7.72;;;;;;;;;;5085252;28;20109;-64
2022/12/28 08:14:05;;;;;;;9.57;7.53;;;;;;;;;;5102469;28;20081;-64
2022/12/28 08:16:32;;;;;;;8.23;7.25;;;;;;;;;;5085239;28;20053;-64
2022/12/28 08:18:59;;;;;;;7.85;7.03;;;;;;;;;;5083795;28;20036;-65
2022/12/28 08:21:29;;;;;;;8.13;6.65;;;;;;;;;;5094280;28;20058;-66
2022/12/28 08:23:55;;;;;;;9.20;7.55;;;;;;;;;;5091296;28;20035;-65
2022/12/28 08:26:32;;;;;;;8.07;7.38;;;;;;;;;;5078408;28;20100;-66
2022/12/28 08:28:59;;;;;;;8.30;7.60;;;;;;;;;;5082660;28;20556;-66
2022/12/28 08:31:27;;;;;;;7.53;6.88;;;;;;;;;;5089072;28;20043;-64
2022/12/28 08:33:54;;;;;;;7.78;7.07;;;;;;;;;;5096309;28;20131;-63
2022/12/28 08:36:20;;;;;;;7.72;6.97;;;;;;;;;;5095933;28;20105;-68
2022/12/28 08:38:46;;;;;;;8.70;8.00;;;;;;;;;;5095595;28;20070;-64
2022/12/28 08:41:14;;;;;;;8.07;7.28;;;;;;;;;;5099955;28;20192;-64
2022/12/28 08:43:40;;;;;;;7.75;7.00;;;;;;;;;;5080552;28;20078;-64
2022/12/28 08:46:08;;;;;;;8.48;7.60;;;;;;;;;;5097674;28;20051;-63
2022/12/28 08:48:34;;;;;;;7.30;6.70;;;;;;;;;;5092726;28;20047;-64
2022/12/28 08:51:05;;;;;;;7.50;6.80;;;;;;;;;;5082510;28;20048;-64
2022/12/28 08:53:31;;;;;;;6.82;6.20;;;;;;;;;;5088921;28;20081;-64
2022/12/28 08:56:04;;;;;;;7.57;5.95;;;;;;;;;;5101550;28;20473;-63
2022/12/28 08:58:30;;;;;;;6.95;6.35;;;;;;;;;;5100667;28;20497;-63
2022/12/28 09:00:56;;;;;;;6.18;5.68;;;;;;;;;;5104659;28;20429;-63
2022/12/28 09:03:22;;;;;;;5.80;5.30;;;;;;;;;;5083572;28;20059;-63
2022/12/28 09:05:48;;;;;;;6.03;5.10;;;;;;;;;;5082824;28;20260;-63
2022/12/28 09:08:14;;;;;;;5.93;5.40;;;;;;;;;;5084025;28;20044;-63
2022/12/28 09:10:40;;;;;;;5.05;4.70;;;;;;;;;;5084167;28;20417;-63
2022/12/28 09:13:06;;;;;;;4.13;3.83;;;;;;;;;;5072816;28;20508;-64
2022/12/28 09:15:32;;;;;;;3.97;3.67;;;;;;;;;;5061451;28;20048;-64
2022/12/28 09:17:58;;;;;;;3.38;3.17;;;;;;;;;;5091314;28;20086;-63
2022/12/28 09:20:24;;;;;;;2.92;2.72;;;;;;;;;;5085354;28;20044;-64
2022/12/28 09:22:50;;;;;;;2.53;2.33;;;;;;;;;;5067795;28;20129;-64
2022/12/28 09:25:16;;;;;;;2.95;2.75;;;;;;;;;;5065200;28;20222;-64
2022/12/28 09:27:42;;;;;;;3.42;3.20;;;;;;;;;;5073895;28;20275;-63
2022/12/28 09:30:08;;;;;;;3.00;2.80;;;;;;;;;;5086845;28;20386;-63
2022/12/28 09:32:34;;;;;;;2.90;2.70;;;;;;;;;;5097554;28;20044;-63
2022/12/28 09:35:00;;;;;;;3.85;3.50;;;;;;;;;;5082481;28;20066;-64
2022/12/28 09:37:26;;;;;;;3.80;3.50;;;;;;;;;;5106176;28;20064;-63
2022/12/28 09:39:52;;;;;;;4.15;3.75;;;;;;;;;;5105808;28;20138;-63
2022/12/28 09:42:23;;;;;;;4.70;4.03;;;;;;;;;;5060656;28;20610;-64
2022/12/28 09:45:00;;;;;;;4.22;3.92;;;;;;;;;;5047719;28;20153;-63
2022/12/28 09:47:29;;;;;;;4.32;4.03;;;;;;;;;;5065253;28;20063;-64
2022/12/28 09:50:01;;;;;;;4.70;4.15;;;;;;;;;;5065093;28;20044;-63
2022/12/28 09:52:48;;;;;;;4.15;3.80;;;;;;;;;;5080198;28;20383;-65
2022/12/28 09:55:15;;;;;;;4.15;3.75;;;;;;;;;;5085089;28;20055;-63
2022/12/28 09:57:43;;;;;;;4.47;4.18;;;;;;;;;;5074134;28;20503;-63
2022/12/28 10:00:15;;;;;;;3.58;3.28;;;;;;;;;;5105522;28;20343;-63
2022/12/28 10:02:41;;;;;;;3.05;2.85;;;;;;;;;;5087578;28;20252;-63
2022/12/28 10:05:08;;;;;;;2.92;2.72;;;;;;;;;;5106205;28;20043;-63
2022/12/28 10:07:36;;;;;;;3.13;2.92;;;;;;;;;;5058986;28;20474;-63
2022/12/28 10:10:02;;;;;;;2.90;2.70;;;;;;;;;;5064041;28;20135;-63
2022/12/28 10:12:30;;;;;;;2.45;2.28;;;;;;;;;;5064014;28;20052;-63
2022/12/28 10:14:56;;;;;;;2.08;1.90;;;;;;;;;;5047582;28;20123;-63
2022/12/28 10:17:29;;;;;;;2.25;2.15;;;;;;;;;;5074000;28;20433;-64
2022/12/28 10:19:57;;;;;;;2.30;2.17;;;;;;;;;;5053084;28;20056;-63
2022/12/28 10:22:24;;;;;;;1.90;1.80;;;;;;;;;;5068947;28;20101;-63
2022/12/28 10:24:50;;;;;;;2.53;2.33;;;;;;;;;;5068920;28;20283;-63
2022/12/28 10:27:24;;;;;;;4.05;2.67;;;;;;;;;;5071315;28;20463;-63
2022/12/28 10:29:51;;;;;;;2.25;2.05;;;;;;;;;;5078149;28;20044;-63
2022/12/28 10:32:18;;;;;;;2.35;2.25;;;;;;;;;;5067991;28;20123;-63
2022/12/28 10:34:56;;;;;;;2.53;2.33;;;;;;;;;;5068294;28;20044;-64
2022/12/28 10:37:23;;;;;;;2.67;2.47;;;;;;;;;;5068432;28;20051;-63
2022/12/28 10:39:51;;;;;;;2.05;1.95;;;;;;;;;;5074550;28;20040;-63
2022/12/28 10:42:23;;;;;;;2.70;2.50;;;;;;;;;;5066352;28;20075;-63
2022/12/28 10:44:49;;;;;;;;;;;;;;;;;;5087835;28;20097;-63
2022/12/28 10:47:24;;;;;;;3.50;3.20;;;;;;;;;;5069957;28;19924;-63
2022/12/28 10:49:51;;;;;;;4.00;3.70;;;;;;;;;;5070682;28;20117;-63
2022/12/28 10:52:21;;;;;;;4.03;3.72;;;;;;;;;;5063594;28;20101;-63
2022/12/28 10:54:47;;;;;;;4.00;3.70;;;;;;;;;;5051757;28;20509;-63
2022/12/28 10:57:31;;;;;;;5.20;4.78;;;;;;;;;;5067967;28;20044;-63
2022/12/28 11:00:15;;;;;;;5.07;4.68;;;;;;;;;;5068358;28;20406;-63
2022/12/28 11:02:42;;;;;;;5.50;5.10;;;;;;;;;;5061768;28;20443;-63
2022/12/28 11:05:18;;;;;;;5.35;4.85;;;;;;;;;;5049170;28;20043;-63
2022/12/28 11:07:44;;;;;;;5.90;5.47;;;;;;;;;;5066806;28;20058;-63
2022/12/28 11:10:32;;;;;;;6.13;5.63;;;;;;;;;;5049653;28;20136;-63
2022/12/28 11:12:58;;;;;;;5.68;5.28;;;;;;;;;;5079826;28;20047;-64
2022/12/28 11:15:27;;;;;;;5.60;5.20;;;;;;;;;;5102357;28;20051;-64
2022/12/28 11:17:54;;;;;;;5.72;5.15;;;;;;;;;;5108741;28;20042;-64
2022/12/28 11:20:23;;;;;;;5.32;4.60;;;;;;;;;;5107747;28;20048;-62
2022/12/28 11:22:50;;;;;;;4.40;4.10;;;;;;;;;;5085401;28;20252;-61
2022/12/28 11:25:17;;;;;;;4.88;4.55;;;;;;;;;;5050125;28;20060;-62
2022/12/28 11:27:45;;;;;;;4.55;4.15;;;;;;;;;;5067381;28;20041;-62
2022/12/28 11:30:15;;;;;;;4.53;4.13;;;;;;;;;;5078296;28;20719;-62
2022/12/28 11:32:57;;;;;;;4.10;3.80;;;;;;;;;;5076293;28;20059;-62
2022/12/28 11:35:26;;;;;;;3.97;3.58;;;;;;;;;;5067504;28;20064;-62
2022/12/28 11:37:53;;;;;;;3.63;3.33;;;;;;;;;;5072809;28;20079;-62
2022/12/28 11:40:38;;;;;;;3.30;3.10;;;;;;;;;;5089054;28;20489;-61
2022/12/28 11:43:04;;;;;;;3.45;3.15;;;;;;;;;;5083252;28;20182;-61
2022/12/28 11:45:49;;;;;;;3.10;2.90;;;;;;;;;;5068411;28;20551;-61
2022/12/28 11:48:35;;;;;;;2.63;2.42;;;;;;;;;;5067411;28;20083;-62
2022/12/28 11:51:05;;;;;;;3.25;3.05;;;;;;;;;;5031227;28;20486;-62
2022/12/28 11:53:31;;;;;;;3.10;2.90;;;;;;;;;;5079094;28;20051;-62
2022/12/28 11:56:00;;;;;;;3.30;3.00;;;;;;;;;;5086574;28;20040;-62
2022/12/28 11:58:29;;;;;;;2.95;2.75;;;;;;;;;;5054465;28;20063;-63
2022/12/28 12:00:55;;;;;;;3.10;2.80;;;;;;;;;;5048940;28;20105;-62
2022/12/28 12:03:42;;;;;;;3.50;2.75;;;;;;;;;;5055473;28;20060;-62
2022/12/28 12:06:08;;;;;;;2.75;2.55;;;;;;;;;;5071309;28;20127;-62
2022/12/28 12:08:38;;;;;;;3.05;2.85;;;;;;;;;;5075776;28;20166;-62
2022/12/28 12:11:27;;;;;;;3.40;3.13;;;;;;;;;;5075338;28;20128;-62
2022/12/28 12:13:54;;;;;;;2.22;2.10;;;;;;;;;;5066504;28;20114;-62
2022/12/28 12:16:22;;;;;;;2.60;2.40;;;;;;;;;;5066050;28;20044;-62
2022/12/28 12:18:50;;;;;;;6.10;3.30;;;;;;;;;;5067258;28;20437;-61
2022/12/28 12:21:34;;;;;;;2.80;2.60;;;;;;;;;;5065249;28;20131;-62
2022/12/28 12:24:03;;;;;;;3.22;3.03;;;;;;;;;;5073200;28;20044;-62
2022/12/28 12:26:38;;;;;;;3.28;3.08;;;;;;;;;;5064325;28;20098;-62
2022/12/28 12:29:07;;;;;;;3.40;3.20;;;;;;;;;;5065888;28;20040;-62
2022/12/28 12:31:36;;;;;;;3.50;3.30;;;;;;;;;;5077699;28;20085;-62
2022/12/28 12:34:10;;;;;;;3.40;3.20;;;;;;;;;;5074860;28;20048;-62
2022/12/28 12:36:55;;;;;;;3.22;3.03;;;;;;;;;;5060649;28;20056;-62
2022/12/28 12:39:27;;;;;;;3.58;3.25;;;;;;;;;;5057632;28;20167;-62
2022/12/28 12:41:53;;;;;;;3.08;2.88;;;;;;;;;;5074607;28;20052;-62
2022/12/28 12:44:33;;;;;;;2.80;2.60;;;;;;;;;;5068475;28;20351;-62
2022/12/28 12:47:02;;;;;;;3.58;3.30;;;;;;;;;;5057046;28;20056;-62
2022/12/28 12:49:51;;;;;;;2.60;2.40;;;;;;;;;;5071404;28;20040;-62
2022/12/28 12:52:29;;;;;;;4.18;2.92;;;;;;;;;;5078074;28;20059;-62
2022/12/28 12:54:55;;;;;;;3.10;2.90;;;;;;;;;;5067196;28;20044;-62
2022/12/28 12:57:34;;;;;;;3.45;3.15;;;;;;;;;;5075616;28;20045;-62
2022/12/28 13:00:04;;;;;;;3.17;2.58;;;;;;;;;;5054957;28;20063;-62
2022/12/28 13:02:45;;;;;;;2.72;2.53;;;;;;;;;;5074509;28;20059;-61
2022/12/28 13:05:15;;;;;;;2.63;2.42;;;;;;;;;;5090446;28;20447;-61
2022/12/28 13:07:41;;;;;;;1.83;1.73;;;;;;;;;;5074742;28;20399;-61
2022/12/28 13:10:13;;;;;;;2.17;2.08;;;;;;;;;;5065374;28;20261;-61
2022/12/28 13:12:40;;;;;;;2.38;2.17;;;;;;;;;;5058289;28;20100;-61
2022/12/28 13:15:06;;;;;;;2.20;2.00;;;;;;;;;;5066117;28;20052;-62
2022/12/28 13:17:34;;;;;;;2.75;2.53;;;;;;;;;;5074322;28;20129;-61
2022/12/28 13:20:18;;;;;;;2.65;2.00;;;;;;;;;;5069591;28;20408;-61
2022/12/28 13:22:45;;;;;;;2.35;2.25;;;;;;;;;;5075508;28;20049;-61
2022/12/28 13:25:30;;;;;;;2.55;2.30;;;;;;;;;;5067320;28;20124;-61
2022/12/28 13:27:59;;;;;;;2.08;1.92;;;;;;;;;;5074236;28;20175;-61
2022/12/28 13:30:25;;;;;;;2.35;2.15;;;;;;;;;;5081853;28;20044;-61
2022/12/28 13:32:59;;;;;;;2.78;2.10;;;;;;;;;;5066053;28;20054;-62
2022/12/28 13:35:32;;;;;;;2.10;2.00;;;;;;;;;;5077924;28;20060;-61
2022/12/28 13:38:11;;;;;;;2.08;1.98;;;;;;;;;;5084307;28;20048;-61
2022/12/28 13:40:38;;;;;;;1.92;1.73;;;;;;;;;;5085397;28;20134;-61
2022/12/28 13:43:17;;;;;;;2.40;2.20;;;;;;;;;;5067765;28;20436;-62
2022/12/28 13:45:43;;;;;;;2.72;2.15;;;;;;;;;;5067641;28;20105;-61
2022/12/28 13:48:09;;;;;;;2.40;2.10;;;;;;;;;;5085018;28;20044;-62
2022/12/28 13:50:38;;;;;;;2.15;1.50;;;;;;;;;;5085871;28;20040;-62
2022/12/28 13:53:10;;;;;;;2.60;1.70;;;;;;;;;;5087850;28;20044;-62
2022/12/28 13:55:42;;;;;;;2.17;1.58;;;;;;;;;;5089316;28;20426;-61
2022/12/28 13:58:11;;;;;;;3.58;1.85;;;;;;;;;;5089838;28;20047;-61
2022/12/28 14:00:37;;;;;;;1.50;1.40;;;;;;;;;;5071374;28;20040;-62
2022/12/28 14:03:06;;;;;;;1.42;1.10;;;;;;;;;;5071178;28;20155;-61
2022/12/28 14:05:33;;;;;;;1.42;1.20;;;;;;;;;;5089006;28;20113;-61
2022/12/28 14:08:01;;;;;;;3.03;1.65;;;;;;;;;;5089364;28;20398;-62
2022/12/28 14:10:28;;;;;;;2.42;1.50;;;;;;;;;;5090069;28;20051;-61
2022/12/28 14:12:54;;;;;;;3.28;1.63;;;;;;;;;;5090019;28;20101;-62
2022/12/28 14:15:20;;;;;;;1.80;1.00;;;;;;;;;;5098623;28;20145;-61
2022/12/28 14:17:47;;;;;;;1.80;1.30;;;;;;;;;;5087973;28;20127;-62
2022/12/28 14:20:13;;;;;;;1.50;1.40;;;;;;;;;;5100760;28;20065;-61
2022/12/28 14:22:40;;;;;;;3.58;2.00;;;;;;;;;;5067360;28;20055;-61
2022/12/28 14:25:11;;;;;;;4.50;2.33;;;;;;;;;;5081227;28;20055;-61
2022/12/28 14:27:45;;;;;;;6.13;3.13;;;;;;;;;;5077934;28;20055;-61
2022/12/28 14:30:23;;;;;;;2.97;1.80;;;;;;;;;;5075539;28;20044;-61
2022/12/28 14:32:49;;;;;;;4.10;1.65;;;;;;;;;;5050993;28;20135;-61
2022/12/28 14:35:19;;;;;;;1.50;1.30;;;;;;;;;;5068159;28;20067;-61
2022/12/28 14:37:49;;;;;;;2.50;2.00;;;;;;;;;;5058367;28;20055;-61
2022/12/28 14:40:23;;;;;;;3.35;2.08;;;;;;;;;;5070321;28;20126;-61
2022/12/28 14:42:50;;;;;;;2.03;1.48;;;;;;;;;;5070732;28;20147;-61
2022/12/28 14:45:23;;;;;;;2.55;1.67;;;;;;;;;;5088063;28;20048;-61
2022/12/28 14:47:55;;;;;;;1.92;1.52;;;;;;;;;;5064107;28;20091;-61
2022/12/28 14:50:26;;;;;;;2.90;1.63;;;;;;;;;;5067838;28;20177;-61
2022/12/28 14:53:01;;;;;;;2.33;1.95;;;;;;;;;;5088659;28;20097;-61
2022/12/28 14:55:41;;;;;;;3.97;2.10;;;;;;;;;;5095388;28;20039;-61
2022/12/28 14:58:14;;;;;;;6.75;2.72;;;;;;;;;;5079589;28;20143;-61
2022/12/28 15:00:52;;;;;;;4.43;1.98;;;;;;;;;;5084361;28;20044;-61
2022/12/28 15:03:19;;;;;;;4.40;2.50;;;;;;;;;;5057513;28;20044;-61
2022/12/28 15:05:50;;;;;;;5.68;2.80;;;;;;;;;;5081496;28;20051;-61
2022/12/28 15:08:16;;;;;;;2.97;1.90;;;;;;;;;;5067663;28;20048;-61
2022/12/28 15:10:53;;;;;;;2.42;1.95;;;;;;;;;;5061093;28;20040;-61
2022/12/28 15:13:20;;;;;;;6.53;3.20;;;;;;;;;;5079213;28;20093;-61
2022/12/28 15:15:56;;;;;;;3.22;2.55;;;;;;;;;;5068456;28;20125;-61
2022/12/28 15:18:22;;;;;;;10.18;3.85;;;;;;;;;;5068228;28;20105;-61